createdAt,value
2018-11-26T00:01:33.365Z,5.77
2018-11-26T00:03:59.702Z,5.83
2018-11-26T00:06:26.022Z,5.87
2018-11-26T00:08:52.443Z,5.86
2018-11-26T00:11:18.772Z,5.89
2018-11-26T00:13:45.203Z,5.93
2018-11-26T00:16:11.569Z,5.96
2018-11-26T00:18:38.003Z,5.95
2018-11-26T00:21:04.390Z,5.96
2018-11-26T00:23:30.704Z,5.97
2018-11-26T00:25:57.072Z,5.97
2018-11-26T00:28:23.448Z,5.99
2018-11-26T00:30:49.745Z,5.99
2018-11-26T00:33:16.080Z,5.99
2018-11-26T00:35:42.401Z,5.99
2018-11-26T00:38:08.708Z,5.99
2018-11-26T00:40:35.057Z,5.97
2018-11-26T00:43:01.359Z,5.96
2018-11-26T00:45:27.704Z,6.00
2018-11-26T00:47:54.040Z,5.96
2018-11-26T00:50:20.347Z,5.95
2018-11-26T00:52:46.687Z,5.94
2018-11-26T00:55:13.096Z,5.98
2018-11-26T00:57:39.407Z,5.94
2018-11-26T01:00:07.236Z,5.92
2018-11-26T01:02:33.556Z,5.88
2018-11-26T01:04:59.919Z,5.88
2018-11-26T01:07:26.254Z,5.84
2018-11-26T01:09:52.538Z,5.82
2018-11-26T01:12:18.855Z,5.83
2018-11-26T01:14:45.154Z,5.83
2018-11-26T01:17:11.501Z,5.85
2018-11-26T01:19:37.832Z,5.83
2018-11-26T01:22:04.163Z,5.84
2018-11-26T01:24:30.494Z,5.85
2018-11-26T01:26:56.822Z,5.79
2018-11-26T01:29:23.168Z,5.76
2018-11-26T01:31:49.468Z,5.72
2018-11-26T01:34:15.784Z,5.66
2018-11-26T01:36:42.128Z,5.64
2018-11-26T01:39:08.510Z,5.59
2018-11-26T01:41:34.823Z,5.53
2018-11-26T01:44:01.138Z,5.53
2018-11-26T01:46:27.468Z,5.53
2018-11-26T01:48:53.803Z,5.59
2018-11-26T01:51:20.162Z,5.58
2018-11-26T01:53:46.469Z,5.63
2018-11-26T01:56:12.774Z,5.64
2018-11-26T01:58:39.134Z,5.64
2018-11-26T02:01:05.439Z,5.66
2018-11-26T02:03:31.726Z,5.71
2018-11-26T02:05:58.041Z,5.74
2018-11-26T02:08:24.336Z,5.77
2018-11-26T02:10:50.681Z,5.77
2018-11-26T02:13:16.978Z,5.80
2018-11-26T02:15:43.292Z,5.85
2018-11-26T02:18:09.600Z,5.89
2018-11-26T02:20:35.922Z,5.92
2018-11-26T02:23:02.276Z,5.95
2018-11-26T02:25:28.586Z,5.95
2018-11-26T02:27:54.925Z,5.96
2018-11-26T02:30:21.275Z,5.94
2018-11-26T02:32:47.605Z,5.90
2018-11-26T02:35:13.963Z,5.84
2018-11-26T02:37:40.284Z,5.87
2018-11-26T02:40:06.622Z,5.87
2018-11-26T02:42:32.925Z,5.85
2018-11-26T02:44:59.302Z,5.87
2018-11-26T02:47:25.595Z,5.88
2018-11-26T02:49:51.896Z,5.89
2018-11-26T02:52:18.200Z,5.91
2018-11-26T02:54:44.522Z,5.92
2018-11-26T02:57:10.842Z,5.97
2018-11-26T02:59:37.213Z,6.04
2018-11-26T03:02:03.512Z,6.08
2018-11-26T03:04:29.810Z,6.08
2018-11-26T03:06:56.172Z,6.10
2018-11-26T03:09:22.494Z,6.08
2018-11-26T03:11:48.805Z,6.08
2018-11-26T03:14:15.115Z,6.10
2018-11-26T03:16:41.409Z,6.10
2018-11-26T03:19:07.734Z,6.08
2018-11-26T03:21:34.044Z,6.08
2018-11-26T03:24:00.372Z,6.07
2018-11-26T03:26:26.707Z,6.06
2018-11-26T03:28:53.016Z,6.07
2018-11-26T03:31:19.294Z,6.09
2018-11-26T03:33:45.589Z,6.09
2018-11-26T03:36:11.953Z,6.07
2018-11-26T03:38:38.327Z,6.12
2018-11-26T03:41:04.572Z,6.14
2018-11-26T03:43:30.948Z,6.13
2018-11-26T03:45:57.281Z,6.14
2018-11-26T03:48:23.595Z,6.07
2018-11-26T03:50:49.925Z,6.06
2018-11-26T03:53:16.260Z,6.04
2018-11-26T03:55:42.547Z,6.02
2018-11-26T03:58:08.873Z,6.02
2018-11-26T04:00:35.233Z,5.98
2018-11-26T04:03:01.502Z,5.96
2018-11-26T04:05:27.789Z,5.92
2018-11-26T04:07:54.132Z,5.87
2018-11-26T04:10:20.428Z,5.86
2018-11-26T04:12:46.712Z,5.82
2018-11-26T04:15:13.079Z,5.81
2018-11-26T04:17:39.464Z,5.81
2018-11-26T04:20:05.785Z,5.81
2018-11-26T04:22:32.093Z,5.82
2018-11-26T04:24:58.486Z,5.83
2018-11-26T04:27:24.781Z,5.80
2018-11-26T04:29:51.120Z,5.82
2018-11-26T04:32:17.439Z,5.81
2018-11-26T04:34:43.738Z,5.83
2018-11-26T04:37:10.024Z,5.84
2018-11-26T04:39:36.411Z,5.86
2018-11-26T04:42:02.705Z,5.87
2018-11-26T04:44:29.121Z,5.85
2018-11-26T04:46:55.384Z,5.85
2018-11-26T04:49:21.697Z,5.83
2018-11-26T04:51:48.023Z,5.83
2018-11-26T04:54:14.366Z,5.83
2018-11-26T04:56:40.665Z,5.82
2018-11-26T04:59:06.953Z,5.82
2018-11-26T05:01:33.234Z,5.83
2018-11-26T05:03:59.567Z,5.83
2018-11-26T05:06:25.895Z,5.84
2018-11-26T05:08:52.218Z,5.91
2018-11-26T05:11:18.559Z,5.90
2018-11-26T05:13:44.868Z,5.94
2018-11-26T05:16:11.207Z,5.95
2018-11-26T05:18:37.619Z,5.94
2018-11-26T05:21:03.922Z,5.95
2018-11-26T05:23:30.228Z,5.95
2018-11-26T05:25:56.569Z,5.94
2018-11-26T05:28:22.853Z,5.94
2018-11-26T05:30:49.184Z,5.94
2018-11-26T05:33:15.458Z,5.93
2018-11-26T05:35:41.788Z,5.92
2018-11-26T05:38:08.072Z,5.91
2018-11-26T05:40:34.381Z,5.93
2018-11-26T05:43:00.719Z,5.95
2018-11-26T05:45:27.003Z,5.96
2018-11-26T05:47:53.351Z,6.02
2018-11-26T05:50:19.675Z,6.08
2018-11-26T05:52:46.004Z,6.09
2018-11-26T05:55:12.329Z,6.11
2018-11-26T05:57:38.662Z,6.15
2018-11-26T06:00:06.732Z,6.13
2018-11-26T06:02:33.016Z,6.17
2018-11-26T06:04:59.311Z,6.17
2018-11-26T06:07:25.632Z,6.17
2018-11-26T06:09:51.950Z,6.20
2018-11-26T06:12:18.258Z,6.23
2018-11-26T06:14:44.615Z,6.20
2018-11-26T06:17:10.922Z,6.19
2018-11-26T06:19:37.232Z,6.18
2018-11-26T06:22:03.600Z,6.19
2018-11-26T06:24:29.926Z,6.37
2018-11-26T06:26:56.253Z,6.46
2018-11-26T06:29:22.708Z,6.45
2018-11-26T06:31:48.989Z,6.40
2018-11-26T06:34:15.350Z,6.36
2018-11-26T06:36:41.684Z,6.34
2018-11-26T06:39:08.074Z,6.25
2018-11-26T06:41:34.364Z,6.29
2018-11-26T06:44:00.691Z,6.34
2018-11-26T06:46:27.011Z,6.37
2018-11-26T06:48:53.319Z,6.43
2018-11-26T06:51:19.620Z,6.42
2018-11-26T06:53:45.930Z,6.46
2018-11-26T06:56:12.221Z,6.58
2018-11-26T06:58:38.585Z,6.69
2018-11-26T07:01:04.885Z,6.80
2018-11-26T07:03:31.235Z,6.79
2018-11-26T07:05:57.522Z,6.79
2018-11-26T07:08:23.818Z,6.84
2018-11-26T07:10:50.102Z,6.86
2018-11-26T07:13:16.405Z,6.83
2018-11-26T07:15:42.749Z,6.80
2018-11-26T07:18:09.035Z,6.82
2018-11-26T07:20:35.369Z,6.88
2018-11-26T07:23:01.650Z,6.91
2018-11-26T07:25:27.943Z,7.06
2018-11-26T07:27:54.265Z,7.04
2018-11-26T07:30:20.558Z,7.08
2018-11-26T07:32:46.860Z,7.20
2018-11-26T07:35:13.246Z,7.22
2018-11-26T07:37:39.539Z,7.16
2018-11-26T07:40:05.850Z,7.09
2018-11-26T07:42:32.171Z,7.25
2018-11-26T07:44:58.459Z,7.26
2018-11-26T07:47:24.811Z,7.24
2018-11-26T07:49:51.148Z,7.33
2018-11-26T07:52:17.481Z,7.38
2018-11-26T07:54:43.764Z,7.37
2018-11-26T07:57:10.110Z,7.34
2018-11-26T07:59:36.435Z,7.37
2018-11-26T08:02:02.740Z,7.32
2018-11-26T08:04:29.044Z,7.32
2018-11-26T08:06:55.346Z,7.33
2018-11-26T08:09:21.701Z,7.30
2018-11-26T08:11:47.984Z,7.29
2018-11-26T08:14:14.306Z,7.32
2018-11-26T08:16:40.671Z,7.40
2018-11-26T08:19:07.022Z,7.36
2018-11-26T08:21:33.345Z,7.35
2018-11-26T08:23:59.657Z,7.34
2018-11-26T08:26:25.947Z,7.35
2018-11-26T08:28:52.243Z,7.40
2018-11-26T08:31:18.560Z,7.45
2018-11-26T08:33:44.853Z,7.43
2018-11-26T08:36:11.160Z,7.46
2018-11-26T08:38:37.467Z,7.57
2018-11-26T08:41:03.754Z,7.57
2018-11-26T08:43:30.058Z,7.59
2018-11-26T08:45:56.383Z,7.67
2018-11-26T08:48:22.709Z,7.55
2018-11-26T08:50:49.016Z,7.55
2018-11-26T08:53:15.285Z,7.57
2018-11-26T08:55:41.592Z,7.60
2018-11-26T08:58:07.897Z,7.59
2018-11-26T09:00:34.196Z,7.54
2018-11-26T09:03:00.501Z,7.59
2018-11-26T09:05:26.820Z,7.64
2018-11-26T09:07:53.124Z,7.68
2018-11-26T09:10:19.445Z,7.72
2018-11-26T09:12:45.753Z,7.77
2018-11-26T09:15:12.085Z,7.87
2018-11-26T09:17:38.401Z,7.92
2018-11-26T09:20:04.692Z,7.99
2018-11-26T09:22:31.007Z,7.99
2018-11-26T09:24:57.317Z,7.99
2018-11-26T09:27:23.621Z,7.98
2018-11-26T09:29:49.910Z,8.00
2018-11-26T09:32:16.210Z,8.05
2018-11-26T09:34:42.543Z,8.06
2018-11-26T09:37:08.879Z,8.11
2018-11-26T09:39:35.189Z,8.20
2018-11-26T09:42:01.507Z,8.21
2018-11-26T09:44:27.811Z,8.22
2018-11-26T09:46:54.133Z,8.29
2018-11-26T09:49:20.433Z,8.37
2018-11-26T09:51:46.779Z,8.35
2018-11-26T09:54:13.074Z,8.29
2018-11-26T09:56:39.416Z,8.35
2018-11-26T09:59:05.758Z,8.38
2018-11-26T10:01:32.146Z,8.47
2018-11-26T10:03:58.454Z,8.58
2018-11-26T10:06:24.776Z,8.53
2018-11-26T10:08:51.088Z,8.58
2018-11-26T10:11:17.392Z,8.65
2018-11-26T10:13:43.709Z,8.71
2018-11-26T10:16:09.980Z,8.87
2018-11-26T10:18:36.307Z,9.00
2018-11-26T10:21:02.614Z,9.05
2018-11-26T10:23:28.917Z,9.11
2018-11-26T10:25:55.242Z,9.22
2018-11-26T10:28:21.544Z,9.32
2018-11-26T10:30:47.847Z,9.41
2018-11-26T10:33:14.891Z,9.42
2018-11-26T10:35:40.477Z,9.48
2018-11-26T10:38:06.767Z,9.63
2018-11-26T10:40:33.075Z,9.78
2018-11-26T10:42:59.380Z,9.73
2018-11-26T10:45:25.669Z,9.94
2018-11-26T10:47:51.985Z,10.29
2018-11-26T10:50:18.292Z,11.15
2018-11-26T10:52:44.619Z,11.65
2018-11-26T10:55:10.944Z,11.22
2018-11-26T10:57:37.264Z,11.13
2018-11-26T11:00:07.432Z,12.29
2018-11-26T11:02:33.722Z,13.28
2018-11-26T11:05:00.022Z,12.78
2018-11-26T11:07:26.350Z,12.44
2018-11-26T11:09:52.640Z,12.07
2018-11-26T11:12:18.979Z,12.09
2018-11-26T11:14:45.313Z,12.16
2018-11-26T11:17:11.598Z,12.44
2018-11-26T11:19:37.920Z,12.45
2018-11-26T11:22:04.229Z,12.86
2018-11-26T11:24:30.542Z,12.21
2018-11-26T11:26:56.874Z,12.07
2018-11-26T11:29:23.188Z,11.80
2018-11-26T11:31:49.519Z,11.62
2018-11-26T11:34:15.806Z,11.70
2018-11-26T11:36:42.137Z,11.72
2018-11-26T11:39:08.426Z,11.50
2018-11-26T11:41:34.846Z,11.48
2018-11-26T11:44:01.084Z,11.58
2018-11-26T11:46:27.400Z,11.96
2018-11-26T11:48:53.690Z,12.21
2018-11-26T11:51:20.015Z,12.34
2018-11-26T11:53:46.345Z,13.26
2018-11-26T11:56:12.665Z,12.96
2018-11-26T11:58:38.988Z,12.47
2018-11-26T12:01:05.294Z,12.05
2018-11-26T12:03:31.604Z,11.88
2018-11-26T12:05:57.893Z,11.85
2018-11-26T12:08:24.231Z,11.84
2018-11-26T12:10:50.590Z,11.84
2018-11-26T12:13:16.923Z,11.84
2018-11-26T12:15:43.283Z,11.80
2018-11-26T12:18:09.577Z,11.75
2018-11-26T12:20:35.877Z,11.66
2018-11-26T12:23:02.214Z,11.58
2018-11-26T12:25:28.529Z,11.53
2018-11-26T12:27:54.865Z,11.51
2018-11-26T12:30:21.191Z,11.54
2018-11-26T12:32:47.516Z,11.61
2018-11-26T12:35:13.866Z,11.73
2018-11-26T12:37:40.176Z,12.23
2018-11-26T12:40:06.533Z,12.97
2018-11-26T12:42:32.867Z,13.02
2018-11-26T12:44:59.169Z,13.15
2018-11-26T12:47:25.478Z,13.01
2018-11-26T12:49:51.769Z,13.01
2018-11-26T12:52:18.081Z,12.85
2018-11-26T12:54:44.409Z,12.56
2018-11-26T12:57:10.733Z,12.39
2018-11-26T12:59:37.099Z,12.32
2018-11-26T13:02:03.459Z,12.38
2018-11-26T13:04:29.772Z,12.39
2018-11-26T13:06:56.148Z,12.45
2018-11-26T13:09:22.462Z,12.46
2018-11-26T13:11:48.776Z,12.46
2018-11-26T13:14:15.112Z,12.51
2018-11-26T13:16:41.407Z,12.55
2018-11-26T13:19:07.728Z,12.58
2018-11-26T13:21:34.038Z,12.62
2018-11-26T13:24:00.344Z,12.64
2018-11-26T13:26:26.651Z,12.60
2018-11-26T13:28:52.982Z,12.57
2018-11-26T13:31:19.282Z,12.53
2018-11-26T13:33:45.645Z,12.54
2018-11-26T13:36:11.986Z,12.54
2018-11-26T13:38:38.311Z,12.53
2018-11-26T13:41:04.623Z,12.54
2018-11-26T13:43:30.960Z,12.48
2018-11-26T13:45:57.264Z,12.42
2018-11-26T13:48:23.609Z,12.39
2018-11-26T13:50:49.927Z,12.43
2018-11-26T13:53:16.232Z,12.39
2018-11-26T13:55:42.579Z,12.38
2018-11-26T13:58:08.896Z,12.36
2018-11-26T14:00:35.228Z,12.33
2018-11-26T14:03:01.537Z,12.35
2018-11-26T14:05:27.821Z,12.38
2018-11-26T14:07:54.136Z,12.39
2018-11-26T14:10:20.447Z,12.38
2018-11-26T14:12:46.756Z,12.33
2018-11-26T14:15:13.137Z,12.34
2018-11-26T14:17:39.462Z,12.36
2018-11-26T14:20:05.777Z,12.36
2018-11-26T14:22:32.089Z,12.36
2018-11-26T14:24:58.390Z,12.35
2018-11-26T14:27:24.716Z,12.33
2018-11-26T14:29:51.134Z,12.28
2018-11-26T14:32:17.487Z,12.25
2018-11-26T14:34:43.799Z,12.25
2018-11-26T14:37:10.121Z,12.24
2018-11-26T14:39:36.461Z,12.17
2018-11-26T14:42:02.765Z,12.14
2018-11-26T14:44:29.073Z,12.18
2018-11-26T14:46:55.346Z,12.16
2018-11-26T14:49:21.658Z,12.13
2018-11-26T14:51:47.978Z,12.09
2018-11-26T14:54:14.314Z,12.08
2018-11-26T14:56:40.640Z,12.05
2018-11-26T14:59:06.957Z,11.95
2018-11-26T15:01:33.287Z,11.90
2018-11-26T15:03:59.589Z,11.87
2018-11-26T15:06:25.932Z,11.83
2018-11-26T15:08:52.263Z,11.75
2018-11-26T15:11:18.602Z,11.73
2018-11-26T15:13:44.915Z,11.88
2018-11-26T15:16:11.237Z,11.96
2018-11-26T15:18:37.543Z,11.94
2018-11-26T15:21:04.005Z,11.91
2018-11-26T15:23:30.216Z,11.79
2018-11-26T15:25:56.533Z,11.67
2018-11-26T15:28:22.867Z,11.71
2018-11-26T15:30:49.159Z,11.65
2018-11-26T15:33:15.490Z,11.54
2018-11-26T15:35:41.830Z,11.49
2018-11-26T15:53:16.526Z,11.50
2018-11-26T15:55:42.835Z,11.56
2018-11-26T15:58:09.175Z,11.57
2018-11-26T16:00:35.511Z,11.59
2018-11-26T16:03:01.843Z,11.65
2018-11-26T16:05:28.154Z,11.70
2018-11-26T16:07:54.445Z,11.76
2018-11-26T16:10:20.748Z,11.77
2018-11-26T16:12:47.084Z,11.90
2018-11-26T16:15:13.422Z,11.95
2018-11-26T16:17:39.707Z,11.87
2018-11-26T16:20:06.076Z,11.89
2018-11-26T16:22:32.364Z,11.87
2018-11-26T16:24:58.743Z,11.74
2018-11-26T16:27:25.078Z,11.65
2018-11-26T16:29:51.467Z,11.77
2018-11-26T16:32:17.783Z,11.74
2018-11-26T16:34:44.080Z,11.72
2018-11-26T16:37:10.382Z,11.67
2018-11-26T16:39:36.691Z,11.62
2018-11-26T16:42:03.025Z,11.58
2018-11-26T16:44:29.336Z,11.58
2018-11-26T16:46:55.664Z,11.64
2018-11-26T16:49:21.954Z,11.67
2018-11-26T16:51:48.263Z,11.68
2018-11-26T16:54:14.590Z,11.60
2018-11-26T16:56:40.897Z,11.54
2018-11-26T16:59:07.253Z,11.43
2018-11-26T17:01:33.542Z,11.27
2018-11-26T17:03:59.844Z,11.15
2018-11-26T17:06:26.209Z,11.03
2018-11-26T17:08:52.564Z,10.86
2018-11-26T17:11:18.879Z,10.68
2018-11-26T17:13:45.173Z,10.57
2018-11-26T17:16:11.494Z,10.55
2018-11-26T17:18:37.789Z,10.48
2018-11-26T17:21:04.125Z,10.43
2018-11-26T17:23:30.439Z,10.42
2018-11-26T17:25:56.731Z,10.35
2018-11-26T17:28:23.057Z,10.34
2018-11-26T17:30:49.387Z,10.30
2018-11-26T17:33:15.692Z,10.24
2018-11-26T17:35:41.990Z,10.25
2018-11-26T17:38:08.322Z,10.26
2018-11-26T17:40:34.644Z,10.25
2018-11-26T17:43:00.938Z,10.23
2018-11-26T17:45:27.245Z,10.24
2018-11-26T17:47:53.598Z,10.22
2018-11-26T17:50:19.932Z,10.10
2018-11-26T17:52:46.290Z,10.10
2018-11-26T17:55:12.601Z,10.12
2018-11-26T17:57:38.959Z,10.08
2018-11-26T18:00:05.283Z,10.24
2018-11-26T18:02:31.604Z,10.33
2018-11-26T18:04:57.971Z,10.44
2018-11-26T18:07:24.271Z,10.53
2018-11-26T18:09:50.609Z,10.41
2018-11-26T18:12:16.944Z,10.40
2018-11-26T18:14:43.233Z,10.38
2018-11-26T18:17:09.600Z,10.29
2018-11-26T18:19:35.896Z,10.32
2018-11-26T18:22:03.456Z,10.23
2018-11-26T18:24:28.585Z,10.23
2018-11-26T18:26:54.929Z,10.24
2018-11-26T18:29:21.248Z,10.21
2018-11-26T18:31:47.570Z,10.28
2018-11-26T18:34:13.915Z,10.28
2018-11-26T18:36:40.218Z,10.31
2018-11-26T18:39:06.542Z,10.34
2018-11-26T18:41:32.860Z,10.31
2018-11-26T18:43:59.167Z,10.26
2018-11-26T18:46:25.491Z,10.22
2018-11-26T18:48:51.812Z,10.27
2018-11-26T18:51:18.119Z,10.31
2018-11-26T18:53:44.446Z,10.33
2018-11-26T18:56:10.749Z,10.36
2018-11-26T18:58:37.065Z,10.40
2018-11-26T19:01:03.387Z,10.43
2018-11-26T19:03:29.726Z,10.41
2018-11-26T19:05:56.027Z,10.44
2018-11-26T19:08:22.340Z,10.44
2018-11-26T19:10:48.664Z,10.46
2018-11-26T19:13:14.989Z,10.44
2018-11-26T19:15:41.290Z,10.46
2018-11-26T19:18:07.598Z,10.50
2018-11-26T19:20:33.921Z,10.57
2018-11-26T19:23:00.349Z,10.56
2018-11-26T19:25:26.667Z,10.57
2018-11-26T19:27:52.998Z,10.59
2018-11-26T19:30:23.081Z,10.60
2018-11-26T19:32:45.734Z,10.61
2018-11-26T19:35:12.054Z,10.64
2018-11-26T19:37:38.389Z,10.61
2018-11-26T19:40:04.679Z,10.54
2018-11-26T19:42:31.099Z,10.46
2018-11-26T19:44:57.384Z,10.36
2018-11-26T19:47:23.709Z,10.32
2018-11-26T19:49:50.026Z,10.28
2018-11-26T19:52:16.388Z,10.32
2018-11-26T19:54:42.676Z,10.35
2018-11-26T19:57:09.032Z,10.34
2018-11-26T19:59:36.591Z,10.20
2018-11-26T20:02:01.686Z,10.17
2018-11-26T20:04:28.003Z,10.22
2018-11-26T20:06:54.304Z,10.17
2018-11-26T20:09:21.149Z,10.40
2018-11-26T20:11:47.476Z,10.50
2018-11-26T20:14:21.319Z,10.53
2018-11-26T20:16:40.073Z,10.52
2018-11-26T20:19:06.368Z,10.53
2018-11-26T20:21:32.675Z,10.60
2018-11-26T20:23:58.999Z,10.63
2018-11-26T20:26:25.295Z,10.65
2018-11-26T20:28:56.810Z,10.76
2018-11-26T20:31:17.907Z,10.75
2018-11-26T20:33:44.202Z,10.77
2018-11-26T20:36:10.502Z,10.89
2018-11-26T20:38:36.808Z,10.93
2018-11-26T20:41:03.123Z,10.88
2018-11-26T20:43:29.478Z,10.82
2018-11-26T20:45:55.831Z,10.74
2018-11-26T20:48:22.104Z,10.70
2018-11-26T20:50:48.407Z,10.61
2018-11-26T20:53:14.737Z,10.69
2018-11-26T20:55:41.087Z,10.78
2018-11-26T20:58:07.382Z,10.80
2018-11-26T21:00:33.719Z,10.76
2018-11-26T21:03:00.003Z,10.70
2018-11-26T21:05:26.331Z,10.77
2018-11-26T21:07:52.657Z,10.91
2018-11-26T21:10:18.951Z,10.90
2018-11-26T21:12:45.255Z,10.91
2018-11-26T21:15:11.582Z,10.89
2018-11-26T21:17:37.944Z,10.86
2018-11-26T21:20:04.261Z,10.83
2018-11-26T21:22:30.640Z,10.77
2018-11-26T21:24:56.953Z,10.71
2018-11-26T21:27:23.292Z,10.63
2018-11-26T21:29:50.615Z,10.57
2018-11-26T21:32:16.026Z,10.51
2018-11-26T21:34:42.353Z,10.50
2018-11-26T21:37:08.656Z,10.46
2018-11-26T21:39:35.018Z,10.41
2018-11-26T21:42:01.336Z,10.40
2018-11-26T21:44:27.667Z,10.41
2018-11-26T21:46:54.069Z,10.37
2018-11-26T21:49:20.438Z,10.37
2018-11-26T21:51:46.744Z,10.36
2018-11-26T21:54:13.039Z,10.30
2018-11-26T21:56:39.360Z,10.24
2018-11-26T21:59:05.695Z,10.25
2018-11-26T22:01:32.065Z,10.23
2018-11-26T22:03:58.383Z,10.25
2018-11-26T22:06:24.705Z,10.25
2018-11-26T22:08:51.038Z,10.18
2018-11-26T22:11:17.332Z,10.19
2018-11-26T22:13:43.668Z,10.23
2018-11-26T22:16:10.278Z,10.23
2018-11-26T22:18:36.284Z,10.26
2018-11-26T22:21:02.606Z,10.24
2018-11-26T22:23:28.906Z,10.19
2018-11-26T22:25:55.218Z,10.17
2018-11-26T22:28:21.531Z,10.16
2018-11-26T22:30:47.911Z,10.11
2018-11-26T22:33:14.250Z,10.13
2018-11-26T22:35:40.567Z,10.15
2018-11-26T22:38:06.901Z,10.14
2018-11-26T22:40:33.210Z,10.16
2018-11-26T22:42:59.538Z,10.14
2018-11-26T22:45:25.863Z,10.11
2018-11-26T22:47:52.254Z,10.09
2018-11-26T22:50:18.568Z,10.06
2018-11-26T22:52:44.947Z,10.06
2018-11-26T22:55:11.256Z,10.03
2018-11-26T22:57:37.582Z,10.03
2018-11-26T23:00:07.032Z,10.04
2018-11-26T23:02:33.373Z,10.06
2018-11-26T23:04:59.677Z,10.13
2018-11-26T23:07:25.971Z,10.19
2018-11-26T23:09:52.375Z,10.23
2018-11-26T23:12:18.661Z,10.13
2018-11-26T23:14:44.993Z,9.89
2018-11-26T23:17:11.296Z,9.84
2018-11-26T23:19:37.655Z,9.62
2018-11-26T23:22:03.968Z,9.44
2018-11-26T23:24:30.266Z,9.25
2018-11-26T23:26:56.586Z,9.02
2018-11-26T23:29:22.884Z,8.86
2018-11-26T23:31:49.238Z,8.76
2018-11-26T23:34:15.571Z,8.70
2018-11-26T23:36:41.867Z,8.68
2018-11-26T23:39:08.197Z,8.62
2018-11-26T23:41:34.540Z,8.55
2018-11-26T23:44:00.867Z,8.55
2018-11-26T23:46:27.216Z,8.56
2018-11-26T23:48:53.540Z,8.56
2018-11-26T23:51:19.862Z,8.54
2018-11-26T23:53:46.155Z,8.51
2018-11-26T23:56:12.490Z,8.54
2018-11-26T23:58:38.824Z,8.54
